createdAt,value
2018-12-17T00:02:08.912Z,100144.42
2018-12-17T00:04:39.660Z,100143.06
2018-12-17T00:07:11.544Z,100150.16
2018-12-17T00:09:41.611Z,100145.80
2018-12-17T00:12:16.469Z,100150.97
2018-12-17T00:14:44.571Z,100150.53
2018-12-17T00:17:14.726Z,100161.00
2018-12-17T00:19:44.812Z,100155.30
2018-12-17T00:22:15.188Z,100155.48
2018-12-17T00:24:45.233Z,100161.61
2018-12-17T00:27:15.307Z,100155.48
2018-12-17T00:29:46.580Z,100152.75
2018-12-17T00:32:16.664Z,100155.87
2018-12-17T00:34:46.820Z,100157.53
2018-12-17T00:37:18.175Z,100162.27
2018-12-17T00:39:48.323Z,100164.26
2018-12-17T00:42:18.468Z,100159.66
2018-12-17T00:44:49.719Z,100158.27
2018-12-17T00:47:19.868Z,100161.91
2018-12-17T00:49:51.207Z,100159.34
2018-12-17T00:52:21.338Z,100160.95
2018-12-17T00:54:51.515Z,100161.20
2018-12-17T00:57:22.841Z,100161.11
2018-12-17T00:59:52.973Z,100157.30
2018-12-17T01:02:23.083Z,100160.13
2018-12-17T01:04:54.439Z,100160.91
2018-12-17T01:07:30.785Z,100155.83
2018-12-17T01:10:02.387Z,100161.38
2018-12-17T01:12:32.515Z,100158.34
2018-12-17T01:15:02.781Z,100163.98
2018-12-17T01:17:34.118Z,100152.73
2018-12-17T01:20:05.003Z,100156.17
2018-12-17T01:22:35.105Z,100151.88
2018-12-17T01:25:06.674Z,100156.27
2018-12-17T01:27:36.819Z,100150.53
2018-12-17T01:30:08.677Z,100154.34
2018-12-17T01:32:39.276Z,100143.84
2018-12-17T01:35:09.432Z,100150.70
2018-12-17T01:37:41.390Z,100145.41
2018-12-17T01:40:11.591Z,100155.56
2018-12-17T01:42:41.740Z,100163.73
2018-12-17T01:45:13.459Z,100159.05
2018-12-17T01:47:43.718Z,100166.82
2018-12-17T01:50:14.066Z,100157.31
2018-12-17T01:52:46.336Z,100158.62
2018-12-17T01:55:16.494Z,100149.16
2018-12-17T01:57:46.649Z,100153.14
2018-12-17T02:00:18.088Z,100155.58
2018-12-17T02:02:48.194Z,100156.05
2018-12-17T02:05:18.283Z,100156.63
2018-12-17T02:07:49.695Z,100151.89
2018-12-17T02:10:19.851Z,100151.28
2018-12-17T02:12:50.003Z,100150.41
2018-12-17T02:15:20.478Z,100140.46
2018-12-17T02:17:50.628Z,100141.12
2018-12-17T02:20:20.870Z,100138.42
2018-12-17T02:22:52.169Z,100135.87
2018-12-17T02:25:22.376Z,100140.25
2018-12-17T02:27:52.565Z,100141.16
2018-12-17T02:30:22.746Z,100142.95
2018-12-17T02:32:52.852Z,100140.86
2018-12-17T02:35:25.262Z,100142.55
2018-12-17T02:37:55.554Z,100138.03
2018-12-17T02:40:25.813Z,100138.38
2018-12-17T02:42:57.548Z,100144.02
2018-12-17T02:45:27.679Z,100147.92
2018-12-17T02:47:57.835Z,100153.22
2018-12-17T02:50:29.233Z,100153.61
2018-12-17T02:52:59.450Z,100157.75
2018-12-17T02:55:29.569Z,100167.03
2018-12-17T02:58:00.942Z,100165.21
2018-12-17T03:00:31.015Z,100164.39
2018-12-17T03:03:01.299Z,100165.61
2018-12-17T03:05:32.640Z,100167.22
2018-12-17T03:08:02.807Z,100172.86
2018-12-17T03:10:33.153Z,100173.72
2018-12-17T03:13:03.658Z,100167.64
2018-12-17T03:15:33.892Z,100171.94
2018-12-17T03:18:06.304Z,100174.55
2018-12-17T03:20:36.443Z,100178.77
2018-12-17T03:23:06.590Z,100173.08
2018-12-17T03:25:38.962Z,100175.59
2018-12-17T03:28:09.140Z,100180.33
2018-12-17T03:30:39.305Z,100175.95
2018-12-17T03:33:09.479Z,100174.16
2018-12-17T03:35:40.840Z,100177.16
2018-12-17T03:38:11.006Z,100167.52
2018-12-17T03:40:41.206Z,100172.77
2018-12-17T03:43:12.585Z,100182.72
2018-12-17T03:45:42.731Z,100178.28
2018-12-17T03:48:12.854Z,100168.98
2018-12-17T03:50:44.241Z,100176.41
2018-12-17T03:53:14.403Z,100172.83
2018-12-17T03:55:44.514Z,100174.14
2018-12-17T03:58:15.217Z,100174.62
2018-12-17T04:00:45.373Z,100172.84
2018-12-17T04:03:15.543Z,100175.00
2018-12-17T04:05:46.846Z,100171.54
2018-12-17T04:08:16.963Z,100169.80
2018-12-17T04:10:47.118Z,100172.89
2018-12-17T04:13:19.122Z,100177.19
2018-12-17T04:15:49.269Z,100177.57
2018-12-17T04:18:20.773Z,100167.97
2018-12-17T04:20:50.812Z,100170.19
2018-12-17T04:23:20.808Z,100170.62
2018-12-17T04:25:53.041Z,100170.23
2018-12-17T04:28:23.182Z,100172.40
2018-12-17T04:30:53.363Z,100171.92
2018-12-17T04:33:25.054Z,100172.80
2018-12-17T04:35:55.193Z,100182.27
2018-12-17T04:38:25.356Z,100180.95
2018-12-17T04:40:58.085Z,100187.04
2018-12-17T04:43:28.207Z,100193.55
2018-12-17T04:45:58.301Z,100200.46
2018-12-17T04:48:29.444Z,100197.03
2018-12-17T04:50:59.620Z,100197.42
2018-12-17T04:53:29.746Z,100200.86
2018-12-17T04:56:01.204Z,100205.63
2018-12-17T04:58:31.366Z,100208.24
2018-12-17T05:01:01.614Z,100215.67
2018-12-17T05:03:32.848Z,100213.80
2018-12-17T05:06:03.044Z,100214.63
2018-12-17T05:08:33.200Z,100217.72
2018-12-17T05:11:03.291Z,100219.98
2018-12-17T05:13:33.444Z,100220.06
2018-12-17T05:16:05.934Z,100212.29
2018-12-17T05:18:36.312Z,100211.42
2018-12-17T05:21:06.447Z,100211.52
2018-12-17T05:23:38.865Z,100218.55
2018-12-17T05:26:08.977Z,100224.24
2018-12-17T05:28:39.183Z,100219.55
2018-12-17T05:31:10.890Z,100225.72
2018-12-17T05:33:41.081Z,100233.66
2018-12-17T05:36:11.300Z,100237.09
2018-12-17T05:38:42.882Z,100230.98
2018-12-17T05:41:12.997Z,100234.89
2018-12-17T05:43:43.133Z,100238.45
2018-12-17T05:46:15.275Z,100245.84
2018-12-17T05:48:45.455Z,100249.39
2018-12-17T05:51:15.578Z,100246.78
2018-12-17T05:53:47.135Z,100248.44
2018-12-17T05:56:17.278Z,100251.04
2018-12-17T05:58:47.429Z,100254.52
2018-12-17T06:01:19.181Z,100265.85
2018-12-17T06:03:49.377Z,100260.64
2018-12-17T06:06:19.580Z,100266.60
2018-12-17T06:08:50.911Z,100275.25
2018-12-17T06:11:21.055Z,100270.47
2018-12-17T06:13:51.310Z,100266.42
2018-12-17T06:16:21.579Z,100262.99
2018-12-17T06:18:51.761Z,100266.42
2018-12-17T06:21:23.416Z,100262.48
2018-12-17T06:23:53.543Z,100271.55
2018-12-17T06:26:23.713Z,100271.91
2018-12-17T06:28:55.932Z,100277.08
2018-12-17T06:31:26.068Z,100272.69
2018-12-17T06:33:56.197Z,100276.08
2018-12-17T06:36:27.597Z,100280.43
2018-12-17T06:38:57.727Z,100280.78
2018-12-17T06:41:27.899Z,100285.03
2018-12-17T06:43:59.268Z,100283.34
2018-12-17T06:46:29.473Z,100279.25
2018-12-17T06:48:59.621Z,100283.17
2018-12-17T06:51:31.043Z,100283.56
2018-12-17T06:54:01.210Z,100290.91
2018-12-17T06:56:31.383Z,100292.98
2018-12-17T06:59:01.546Z,100298.50
2018-12-17T07:01:32.310Z,100295.84
2018-12-17T07:04:02.526Z,100304.16
2018-12-17T07:06:32.981Z,100303.19
2018-12-17T07:09:03.269Z,100306.53
2018-12-17T07:11:33.475Z,100310.93
2018-12-17T07:14:03.531Z,100313.34
2018-12-17T07:16:33.733Z,100315.86
2018-12-17T07:19:03.918Z,100322.30
2018-12-17T07:21:34.170Z,100324.52
2018-12-17T07:24:04.319Z,100331.39
2018-12-17T07:26:35.852Z,100343.52
2018-12-17T07:29:05.996Z,100339.59
2018-12-17T07:31:36.291Z,100347.44
2018-12-17T07:34:07.629Z,100352.52
2018-12-17T07:36:37.849Z,100350.53
2018-12-17T07:39:09.150Z,100350.01
2018-12-17T07:41:40.367Z,100354.80
2018-12-17T07:44:10.494Z,100351.80
2018-12-17T07:46:42.388Z,100361.02
2018-12-17T07:49:12.562Z,100360.84
2018-12-17T07:51:42.732Z,100355.14
2018-12-17T07:54:14.477Z,100363.78
2018-12-17T07:56:44.734Z,100362.05
2018-12-17T07:59:14.892Z,100363.79
2018-12-17T08:01:46.741Z,100368.09
2018-12-17T08:04:16.832Z,100381.44
2018-12-17T08:06:46.985Z,100384.19
2018-12-17T08:09:18.257Z,100385.31
2018-12-17T08:11:48.401Z,100390.63
2018-12-17T08:14:18.545Z,100387.00
2018-12-17T08:16:50.955Z,100392.70
2018-12-17T08:19:21.139Z,100386.52
2018-12-17T08:21:51.436Z,100381.38
2018-12-17T08:24:21.634Z,100387.72
2018-12-17T08:26:52.027Z,100390.77
2018-12-17T08:29:23.844Z,100394.30
2018-12-17T08:31:53.994Z,100394.25
2018-12-17T08:34:24.152Z,100396.77
2018-12-17T08:36:54.342Z,100399.81
2018-12-17T08:39:25.381Z,100399.42
2018-12-17T08:41:55.607Z,100398.50
2018-12-17T08:44:27.776Z,100399.77
2018-12-17T08:46:57.927Z,100399.37
2018-12-17T08:49:28.058Z,100405.05
2018-12-17T08:51:59.826Z,100398.98
2018-12-17T08:54:29.994Z,100407.02
2018-12-17T08:57:00.158Z,100410.89
2018-12-17T08:59:31.560Z,100411.28
2018-12-17T09:02:01.736Z,100411.75
2018-12-17T09:04:33.511Z,100418.58
2018-12-17T09:07:03.971Z,100424.63
2018-12-17T09:09:34.124Z,100426.31
2018-12-17T09:12:05.783Z,100423.27
2018-12-17T09:14:36.018Z,100433.62
2018-12-17T09:17:06.210Z,100435.80
2018-12-17T09:19:38.583Z,100435.16
2018-12-17T09:22:09.802Z,100433.75
2018-12-17T09:24:40.355Z,100440.19
2018-12-17T09:27:12.850Z,100449.77
2018-12-17T09:29:44.208Z,100452.53
2018-12-17T09:32:14.364Z,100455.42
2018-12-17T09:34:44.516Z,100457.28
2018-12-17T09:37:16.090Z,100469.58
2018-12-17T09:39:47.470Z,100462.89
2018-12-17T09:42:17.606Z,100470.55
2018-12-17T09:44:49.177Z,100466.04
2018-12-17T09:47:20.634Z,100474.61
2018-12-17T09:50:21.699Z,100477.13
2018-12-17T09:52:52.757Z,100485.08
2018-12-17T09:55:22.963Z,100482.35
2018-12-17T09:57:54.948Z,100477.45
2018-12-17T10:00:25.861Z,100474.84
2018-12-17T10:02:57.474Z,100465.95
2018-12-17T10:05:28.971Z,100468.09
2018-12-17T10:08:00.276Z,100476.84
2018-12-17T10:10:30.481Z,100458.75
2018-12-17T10:13:00.549Z,100467.80
2018-12-17T10:15:32.159Z,100469.86
2018-12-17T10:18:03.463Z,100464.63
2018-12-17T10:20:33.691Z,100464.95
2018-12-17T10:23:05.193Z,100461.03
2018-12-17T10:25:35.382Z,100465.23
2018-12-17T10:28:05.502Z,100469.70
2018-12-17T10:30:38.105Z,100473.02
2018-12-17T10:33:09.405Z,100469.96
2018-12-17T10:35:39.837Z,100468.72
2018-12-17T10:38:11.304Z,100470.36
2018-12-17T10:40:41.776Z,100475.98
2018-12-17T10:43:11.983Z,100484.98
2018-12-17T10:45:43.691Z,100484.75
2018-12-17T10:48:14.773Z,100486.62
2018-12-17T10:50:47.109Z,100481.55
2018-12-17T10:53:18.553Z,100490.06
2018-12-17T10:55:49.991Z,100504.25
2018-12-17T10:58:21.832Z,100483.77
2018-12-17T11:00:58.439Z,100481.25
2018-12-17T11:03:38.759Z,100483.88
2018-12-17T11:08:54.512Z,100494.89
2018-12-17T11:11:27.297Z,100497.62
2018-12-17T11:13:58.637Z,100499.36
2018-12-17T11:16:31.148Z,100501.33
2018-12-17T11:19:02.696Z,100499.37
2018-12-17T11:21:33.114Z,100503.19
2018-12-17T11:24:05.599Z,100507.09
2018-12-17T11:26:35.998Z,100506.00
2018-12-17T11:29:06.255Z,100503.89
2018-12-17T11:31:38.091Z,100508.04
2018-12-17T11:34:08.537Z,100510.53
2018-12-17T11:36:38.997Z,100506.61
2018-12-17T11:39:11.336Z,100507.33
2018-12-17T11:41:42.963Z,100508.24
2018-12-17T11:44:13.179Z,100507.75
2018-12-17T11:46:45.427Z,100511.79
2018-12-17T11:49:16.134Z,100510.42
2018-12-17T11:51:47.957Z,100507.92
2018-12-17T11:54:19.399Z,100508.19
2018-12-17T11:57:44.713Z,100507.91
2018-12-17T12:00:15.030Z,100506.87
2018-12-17T12:02:47.317Z,100505.02
2018-12-17T12:05:18.866Z,100512.70
2018-12-17T12:07:50.251Z,100519.63
2018-12-17T12:10:21.707Z,100510.41
2018-12-17T12:12:52.075Z,100514.21
2018-12-17T12:15:23.958Z,100514.11
2018-12-17T12:17:55.322Z,100518.53
2018-12-17T12:20:25.614Z,100515.15
2018-12-17T12:22:57.826Z,100526.02
2018-12-17T12:25:29.284Z,100525.64
2018-12-17T12:28:02.450Z,100521.46
2018-12-17T12:30:33.969Z,100525.45
2018-12-17T12:33:07.291Z,100525.28
2018-12-17T12:35:38.038Z,100532.26
2018-12-17T12:38:10.021Z,100537.66
2018-12-17T12:40:41.591Z,100542.14
2018-12-17T12:43:11.817Z,100545.14
2018-12-17T12:45:44.246Z,100542.75
2018-12-17T12:48:15.912Z,100546.96
2018-12-17T12:50:46.551Z,100552.67
2018-12-17T12:53:18.530Z,100551.87
2018-12-17T12:55:50.203Z,100552.03
2018-12-17T12:58:20.512Z,100559.33
2018-12-17T13:00:51.847Z,100552.69
2018-12-17T13:03:23.583Z,100565.28
2018-12-17T13:05:54.846Z,100574.55
2018-12-17T13:08:26.923Z,100580.34
2018-12-17T13:10:59.443Z,100592.18
2018-12-17T13:13:31.040Z,100592.67
2018-12-17T13:16:03.765Z,100597.03
2018-12-17T13:18:34.200Z,100600.84
2018-12-17T13:21:04.696Z,100594.30
2018-12-17T13:23:37.232Z,100603.96
2018-12-17T13:26:09.479Z,100603.84
2018-12-17T13:28:40.124Z,100611.05
2018-12-17T13:31:14.664Z,100612.31
2018-12-17T13:33:45.081Z,100612.89
2018-12-17T13:36:17.207Z,100621.19
2018-12-17T13:38:48.187Z,100636.15
2018-12-17T13:41:20.432Z,100631.55
2018-12-17T13:43:52.635Z,100640.49
2018-12-17T13:46:23.042Z,100636.52
2018-12-17T13:48:55.896Z,100641.33
2018-12-17T13:51:33.680Z,100650.09
2018-12-17T13:54:05.278Z,100644.27
2018-12-17T13:56:35.630Z,100648.53
2018-12-17T13:59:05.889Z,100654.84
2018-12-17T14:01:37.556Z,100664.12
2018-12-17T14:04:08.207Z,100664.06
2018-12-17T14:06:39.058Z,100667.62
2018-12-17T14:09:12.883Z,100659.86
2018-12-17T14:11:45.397Z,100667.37
2018-12-17T14:14:16.284Z,100675.56
2018-12-17T14:16:53.473Z,100671.20
2018-12-17T14:19:26.069Z,100664.41
2018-12-17T14:22:02.376Z,100670.61
2018-12-17T14:24:34.930Z,100675.41
2018-12-17T14:27:06.466Z,100672.56
2018-12-17T14:29:38.224Z,100681.28
2018-12-17T14:32:10.178Z,100687.48
2018-12-17T14:37:21.945Z,100699.13
2018-12-17T14:39:53.812Z,100699.46
2018-12-17T14:42:26.724Z,100705.75
2018-12-17T14:44:58.924Z,100703.77
2018-12-17T14:47:30.718Z,100714.63
2018-12-17T14:50:01.687Z,100721.76
2018-12-17T14:52:34.544Z,100719.88
2018-12-17T14:55:07.118Z,100730.73
2018-12-17T14:57:37.819Z,100732.87
2018-12-17T15:00:14.271Z,100737.02
2018-12-17T15:02:44.787Z,100748.48
2018-12-17T15:05:17.562Z,100752.84
2018-12-17T15:07:49.102Z,100752.84
2018-12-17T15:10:19.796Z,100755.95
2018-12-17T15:12:51.171Z,100763.61
2018-12-17T15:15:23.443Z,100763.75
2018-12-17T15:17:55.418Z,100762.50
2018-12-17T15:20:26.874Z,100768.02
2018-12-17T15:23:00.214Z,100779.33
2018-12-17T15:25:32.253Z,100779.70
2018-12-17T15:28:03.204Z,100786.30
2018-12-17T15:30:35.870Z,100795.61
2018-12-17T15:33:07.845Z,100789.80
2018-12-17T15:35:38.876Z,100798.57
2018-12-17T15:38:12.026Z,100811.96
2018-12-17T15:40:44.618Z,100808.66
2018-12-17T15:43:18.053Z,100815.20
2018-12-17T15:45:49.066Z,100825.30
2018-12-17T15:48:23.001Z,100829.81
2018-12-17T15:50:56.390Z,100835.92
2018-12-17T15:53:28.755Z,100837.72
2018-12-17T15:56:11.116Z,100846.00
2018-12-17T15:58:42.345Z,100850.91
2018-12-17T16:01:14.376Z,100855.27
2018-12-17T16:03:46.350Z,100860.07
2018-12-17T16:06:16.990Z,100865.73
2018-12-17T16:08:49.596Z,100863.47
2018-12-17T16:11:22.296Z,100864.16
2018-12-17T16:13:54.137Z,100869.44
2018-12-17T16:16:25.911Z,100862.55
2018-12-17T16:18:56.323Z,100863.38
2018-12-17T16:21:28.314Z,100869.58
2018-12-17T16:23:59.271Z,100879.10
2018-12-17T16:26:33.252Z,100874.48
2018-12-17T16:29:05.565Z,100885.69
2018-12-17T16:31:35.943Z,100886.86
2018-12-17T16:34:08.470Z,100887.43
2018-12-17T16:36:40.493Z,100894.23
2018-12-17T16:39:11.952Z,100895.02
2018-12-17T16:41:43.324Z,100902.23
2018-12-17T16:44:15.614Z,100907.25
2018-12-17T16:46:47.295Z,100912.66
2018-12-17T16:49:18.819Z,100915.81
2018-12-17T16:51:49.101Z,100917.81
2018-12-17T16:54:21.398Z,100923.75
2018-12-17T16:56:52.962Z,100928.43
2018-12-17T16:59:23.253Z,100917.56
2018-12-17T17:01:55.364Z,100916.69
2018-12-17T17:04:26.808Z,100919.30
2018-12-17T17:06:57.340Z,100917.16
2018-12-17T17:09:29.621Z,100925.98
2018-12-17T17:12:01.332Z,100921.97
2018-12-17T17:14:31.562Z,100922.14
2018-12-17T17:17:03.462Z,100924.11
2018-12-17T17:19:34.976Z,100926.03
2018-12-17T17:22:06.593Z,100925.07
2018-12-17T17:24:37.203Z,100930.31
2018-12-17T17:27:09.817Z,100933.41
2018-12-17T17:29:41.388Z,100935.20
2018-12-17T17:32:12.822Z,100930.84
2018-12-17T17:34:43.226Z,100940.12
2018-12-17T17:37:15.000Z,100942.70
2018-12-17T17:39:46.522Z,100948.03
2018-12-17T17:42:16.759Z,100948.77
2018-12-17T17:44:47.806Z,100955.36
2018-12-17T17:47:19.853Z,100963.78
2018-12-17T17:49:51.289Z,100963.03
2018-12-17T17:52:22.024Z,100971.68
2018-12-17T17:54:52.676Z,100975.29
2018-12-17T17:57:24.318Z,100974.26
2018-12-17T17:59:56.021Z,100986.12
2018-12-17T18:02:27.532Z,100983.06
2018-12-17T18:04:58.255Z,100987.50
2018-12-17T18:07:30.569Z,100986.63
2018-12-17T18:10:04.530Z,100993.58
2018-12-17T18:12:34.878Z,100994.25
2018-12-17T18:15:05.862Z,101001.00
2018-12-17T18:17:37.285Z,101004.60
2018-12-17T18:20:09.220Z,101006.86
2018-12-17T18:22:40.158Z,101015.23
2018-12-17T18:25:10.465Z,101011.30
2018-12-17T18:27:42.265Z,101021.92
2018-12-17T18:30:14.177Z,101026.25
2018-12-17T18:32:44.438Z,101025.45
2018-12-17T18:35:15.491Z,101024.10
2018-12-17T18:37:47.052Z,101027.63
2018-12-17T18:40:17.577Z,101029.41
2018-12-17T18:42:47.766Z,101036.36
2018-12-17T18:45:20.104Z,101032.72
2018-12-17T18:47:51.623Z,101044.31
2018-12-17T18:50:22.354Z,101044.31
2018-12-17T18:52:54.593Z,101050.38
2018-12-17T18:55:26.029Z,101045.25
2018-12-17T18:57:56.223Z,101044.28
2018-12-17T19:00:26.456Z,101053.87
2018-12-17T19:02:57.546Z,101050.45
2018-12-17T19:05:29.052Z,101052.20
2018-12-17T19:07:59.568Z,101056.05
2018-12-17T19:10:33.900Z,101062.53
2018-12-17T19:13:05.392Z,101066.68
2018-12-17T19:15:36.339Z,101065.41
2018-12-17T19:18:06.566Z,101071.14
2018-12-17T19:20:36.843Z,101079.19
2018-12-17T19:23:09.322Z,101079.69
2018-12-17T19:25:41.163Z,101075.98
2018-12-17T19:28:11.664Z,101078.20
2018-12-17T19:30:43.395Z,101082.64
2018-12-17T19:33:15.418Z,101079.95
2018-12-17T19:35:45.753Z,101084.86
2018-12-17T19:38:16.092Z,101090.46
2018-12-17T19:40:48.285Z,101090.56
2018-12-17T19:43:19.771Z,101098.79
2018-12-17T19:45:51.235Z,101099.70
2018-12-17T19:48:21.443Z,101104.89
2018-12-17T19:50:53.893Z,101097.80
2018-12-17T19:53:25.381Z,101099.66
2018-12-17T19:55:56.771Z,101103.92
2018-12-17T19:58:26.960Z,101106.90
2018-12-17T20:00:57.169Z,101108.72
2018-12-17T20:03:29.077Z,101110.50
2018-12-17T20:06:00.671Z,101107.41
2018-12-17T20:08:30.887Z,101114.36
2018-12-17T20:11:01.234Z,101111.70
2018-12-17T20:13:32.905Z,101118.28
2018-12-17T20:16:04.634Z,101117.45
2018-12-17T20:18:34.897Z,101118.79
2018-12-17T20:21:06.734Z,101120.03
2018-12-17T20:23:38.091Z,101122.28
2018-12-17T20:26:09.537Z,101126.58
2018-12-17T20:28:40.392Z,101121.34
2018-12-17T20:31:10.555Z,101131.78
2018-12-17T20:33:42.402Z,101127.05
2018-12-17T20:36:13.956Z,101132.69
2018-12-17T20:38:46.035Z,101135.30
2018-12-17T20:41:17.478Z,101147.16
2018-12-17T20:43:48.241Z,101143.23
2018-12-17T20:46:18.475Z,101141.23
2018-12-17T20:48:50.678Z,101144.69
2018-12-17T20:51:22.054Z,101154.91
2018-12-17T20:53:53.527Z,101157.93
2018-12-17T20:56:23.737Z,101149.93
2018-12-17T20:58:55.869Z,101165.31
2018-12-17T21:01:27.443Z,101159.20
2018-12-17T21:03:57.643Z,101158.70
2018-12-17T21:06:31.682Z,101163.97
2018-12-17T21:09:04.107Z,101160.05
2018-12-17T21:11:34.335Z,101164.34
2018-12-17T21:14:04.973Z,101162.08
2018-12-17T21:16:36.975Z,101162.45
2018-12-17T21:19:09.276Z,101164.23
2018-12-17T21:21:40.663Z,101165.95
2018-12-17T21:24:10.891Z,101174.31
2018-12-17T21:26:43.042Z,101168.27
2018-12-17T21:29:14.625Z,101160.88
2018-12-17T21:31:44.816Z,101172.59
2018-12-17T21:34:15.527Z,101164.73
2018-12-17T21:36:47.898Z,101166.55
2018-12-17T21:39:19.363Z,101163.50
2018-12-17T21:41:49.919Z,101163.03
2018-12-17T21:44:20.136Z,101165.42
2018-12-17T21:46:52.935Z,101169.89
2018-12-17T21:49:24.667Z,101168.87
2018-12-17T21:51:55.283Z,101169.41
2018-12-17T21:54:25.493Z,101171.16
2018-12-17T21:56:55.729Z,101174.69
2018-12-17T21:59:27.452Z,101173.38
2018-12-17T22:01:58.830Z,101184.66
2018-12-17T22:04:29.055Z,101178.58
2018-12-17T22:07:00.602Z,101181.73
2018-12-17T22:09:32.075Z,101183.34
2018-12-17T22:12:02.391Z,101189.45
2018-12-17T22:14:34.590Z,101181.57
2018-12-17T22:17:06.068Z,101188.63
2018-12-17T22:19:37.388Z,101191.70
2018-12-17T22:22:07.581Z,101187.81
2018-12-17T22:24:37.855Z,101188.72
2018-12-17T22:27:10.275Z,101195.80
2018-12-17T22:29:41.903Z,101202.77
2018-12-17T22:32:12.090Z,101204.95
2018-12-17T22:34:42.308Z,101205.86
2018-12-17T22:37:14.705Z,101205.48
2018-12-17T22:39:46.092Z,101207.17
2018-12-17T22:42:17.452Z,101210.28
2018-12-17T22:44:47.620Z,101214.12
2018-12-17T22:47:19.709Z,101212.69
2018-12-17T22:49:51.459Z,101217.05
2018-12-17T22:52:21.903Z,101215.61
2018-12-17T22:54:52.232Z,101223.22
2018-12-17T22:57:22.413Z,101217.52
2018-12-17T22:59:54.141Z,101221.45
2018-12-17T23:02:25.542Z,101219.73
2018-12-17T23:04:55.699Z,101220.61
2018-12-17T23:07:27.633Z,101227.99
2018-12-17T23:10:16.043Z,101217.45
2018-12-17T23:13:04.523Z,101222.63
2018-12-17T23:15:51.547Z,101218.63
2018-12-17T23:18:21.396Z,101213.77
2018-12-17T23:20:52.587Z,101216.92
2018-12-17T23:23:23.284Z,101217.73
2018-12-17T23:25:56.916Z,101214.58
2018-12-17T23:28:28.066Z,101222.73
2018-12-17T23:30:58.561Z,101217.56
2018-12-17T23:33:33.063Z,101234.25
2018-12-17T23:36:04.008Z,101220.66
2018-12-17T23:38:34.467Z,101219.78
2018-12-17T23:41:04.639Z,101216.42
2018-12-17T23:43:37.304Z,101214.95
2018-12-17T23:46:09.500Z,101213.67
2018-12-17T23:48:40.933Z,101206.91
2018-12-17T23:51:11.135Z,101210.52
2018-12-17T23:53:42.690Z,101208.03
2018-12-17T23:56:13.958Z,101210.17
2018-12-17T23:58:44.153Z,101203.23
